Decoded Metar for KEVM (EVELETH MUNI in MN, USA) (IATA:EVM) | Meteo·Mobile Aviation Weather
aviador You're here:

KEVM Decoded Metar

EVELETH MUNI in MN, USA
Report Time2019-01-21 16:35:00
UTC Time2019-01-21 17:00:44
Flight Rules vfr VFR
Wind160° at 09 Gusting to 15 kt
W.Decomp.*RWY 14: 8.5 kt HW 3.1 kt RCW
RWY 09: 3.1 kt HW 8.5 kt RCW
W.Rank160° ranks 16
Current wind is above 160° avg. (7.0)
Visibility9999 m
Phenomena:N/A
Clouds:Overcast 085 Hf
Expected CloudBase > 2,000 ft AGL from Temp-Dew spread
Ceiling8,500 ft
Temp-17°C (ISA -29)
Dew Point-22°C (65% RH)
AAT-23.9°C
QNH1026 hPa
Density Alt-2,753 ft
Elevation1,381 ft
Report Wrong Elevation
Raw Report
KEVM 211635Z AUTO 16009G15KT 10SM OVC085 M17/M22 A3029 RMK AO2
T11701225=

Extra information for KEVM:More info

Metar Taf Metar & Taf Last 4 Metars F.Rules Stats Wind Profile Meteogram Temp Stats Airport Information Weather charts Add Link Nearby VenuesMetar ALERT Operation Metar Decoded Social comments

AIRNAV info for KEVM